• Join FlightAware (Why Join?)
  • Login
  • US Flag 
01:17PM EDT


 

Airport Tracker/Info


-or-


 

Live Flight TrackerFlight Track Log ✈ SKW6492 ✈ 19-Jul-2014 ✈ KDEN - KCOD

Flight Track Log - Related Links

Times and Time Zones

All times are in EDT time to prevent confusion due to time zone crossing. See the SKW6492 flight status page for this flight to view local times or setup timezone preferences in your user account.

Time Position Orientation Groundspeed Altitude Reporting Facility
EDT Latitude Longitude Course Direction KTS MPH feet Rate Location/Type
09:59PM 39.8833 -104.6000 351° North 177 204 6,400  Level Denver TRACON
10:00PM 39.8833 -104.5167 90° East 235 270 8,000 1,560 Climbing Denver TRACON
10:01PM 39.9167 -104.4333 62° Northeast 293 337 9,600 2,040 Climbing Denver TRACON
10:02PM 40.2708 -104.8029 347° North  Level FlightAware Approximate
10:03PM 40.3763 -104.8365 346° North  Level FlightAware Approximate
10:03PM 40.0269 -104.3797 20° North 295 339 13,100  Level Denver Center
10:04PM 40.4815 -104.8716 346° North  Level FlightAware Approximate
10:04PM 40.1136 -104.4094 345° North 306 352 15,200  Level Denver Center
10:05PM 39.9553 -104.6977 351° North  Level FlightAware Approximate
10:05PM 40.1906 -104.4611 333° Northwest 309 356 17,200  Level Denver Center
10:06PM 40.2686 -104.5111 334° Northwest 312 359 18,900 1,560 Climbing Denver Center
10:07PM 40.3528 -104.5667 333° Northwest 317 365 20,500 1,260 Climbing Denver Center
10:08PM 40.4161 -104.6244 325° Northwest 310 357 21,600 1,320 Climbing Denver Center
10:09PM 40.5053 -104.7117 323° Northwest 329 379 23,300 1,260 Climbing Denver Center
10:10PM 40.5811 -104.7844 324° Northwest 336 387 24,200 780 Climbing Denver Center
10:11PM 40.6594 -104.8639 322° Northwest 354 407 25,000 780 Climbing Denver Center
10:12PM 40.7408 -104.9447 323° Northwest 362 417 25,900 480 Climbing Denver Center
10:13PM 40.8258 -105.0283 323° Northwest 376 433 26,000  Climbing Denver Center
10:14PM 40.9150 -105.1186 323° Northwest 399 459 26,000  Level Denver Center
10:15PM 41.0192 -105.2239 323° Northwest 413 475 26,000  Level Denver Center
10:16PM 41.1092 -105.3153 323° Northwest 421 484 26,000  Level Denver Center
10:17PM 41.2139 -105.4219 323° Northwest 424 488 26,000  Level Denver Center
10:18PM 41.3050 -105.5142 323° Northwest 427 491 26,000  Level Denver Center
10:19PM 41.3958 -105.6064 323° Northwest 427 491 26,000  Level Denver Center
10:20PM 41.5011 -105.7158 322° Northwest 428 493 26,000  Level Denver Center
10:21PM 41.5931 -105.8103 322° Northwest 430 495 26,000  Level Denver Center
10:22PM 41.6847 -105.9047 322° Northwest 433 498 26,000  Level Denver Center
10:23PM 41.7911 -106.0153 322° Northwest 432 497 26,000  Level Denver Center
10:24PM 41.8819 -106.1111 322° Northwest 433 498 26,000  Level Denver Center
10:25PM 41.9886 -106.2217 322° Northwest 433 498 26,000  Level Denver Center
10:26PM 42.0786 -106.3150 322° Northwest 431 496 26,000  Level Denver Center
10:27PM 42.1656 -106.4092 321° Northwest 424 488 26,000  Level Denver Center
10:28PM 42.2706 -106.5189 322° Northwest 426 490 26,000  Level Denver Center
10:29PM 42.3625 -106.6172 322° Northwest 431 496 26,000  Level Denver Center
10:30PM 42.4686 -106.7297 322° Northwest 432 497 26,000  Level Denver Center
10:31PM 42.5581 -106.8250 322° Northwest 430 495 26,000  Level Denver Center
10:32PM 42.6469 -106.9211 322° Northwest 429 494 26,000  Level Denver Center
10:33PM 42.7511 -107.0333 322° Northwest 427 491 26,000  Level Denver Center
10:34PM 42.8403 -107.1300 322° Northwest 427 491 26,000  Level Denver Center
10:35PM 42.9111 -107.2061 322° Northwest 427 491 26,000  Level Salt Lake Center
10:36PM 43.0117 -107.3194 321° Northwest 428 493 26,000  Level Salt Lake Center
10:37PM 43.1031 -107.4186 322° Northwest 424 488 26,000  Level Salt Lake Center
10:38PM 43.1953 -107.5203 321° Northwest 424 488 26,000  Level Salt Lake Center
10:39PM 43.2850 -107.6211 321° Northwest 421 484 26,000  Level Salt Lake Center
10:40PM 43.3758 -107.7217 321° Northwest 421 484 26,000  Level Salt Lake Center
10:41PM 43.4667 -107.8219 321° Northwest 420 483 26,000  Level Salt Lake Center
10:42PM 43.5575 -107.9236 321° Northwest 419 482 26,000  Level Salt Lake Center
10:43PM 43.6664 -108.0447 321° Northwest 419 482 26,000  Level Salt Lake Center
10:45PM 43.7556 -108.1467 320° Northwest 419 482 26,000 -840 Level Salt Lake Center
10:46PM 43.8467 -108.2508 321° Northwest 419 482 24,400 -2,340 Descending Salt Lake Center
10:47PM 43.9378 -108.3536 321° Northwest 421 484 21,300 -3,060 Descending Salt Lake Center
10:48PM 44.0211 -108.4511 320° Northwest 402 463 18,200 -2,940 Descending Salt Lake Center
10:49PM 44.0989 -108.5408 320° Northwest 384 442 15,300 -2,640 Descending Salt Lake Center
10:50PM 44.1739 -108.6250 321° Northwest 367 422 12,800 -2,460 Descending Salt Lake Center
10:51PM 44.2422 -108.7039 320° Northwest 347 399 10,300 -1,860 Descending Salt Lake Center
10:52PM 44.3014 -108.7722 320° Northwest 315 362 9,000 -660 Descending Salt Lake Center
10:53PM 44.3583 -108.8333 323° Northwest 285 328 9,000  Level Salt Lake Center
10:54PM 44.4417 -108.8208 North 264 304 9,000  Level Salt Lake Center
10:55PM 44.5106 -108.8031 10° North 255 293 9,000 -60 Level Salt Lake Center
10:56PM 44.5794 -108.7856 10° North 255 293 8,900 -480 Descending Salt Lake Center
10:57PM 44.6314 -108.7692 13° North 235 270 8,100 -780 Descending Salt Lake Center
10:58PM 44.6250 -108.8344 262° West 196 226 7,400 -420 Descending Salt Lake Center
10:59PM 44.6022 -108.8844 237° Southwest 171 197 7,300 -240 Descending Salt Lake Center
11:00PM 44.5775 -108.9278 231° Southwest 155 178 7,000 -660 Descending Salt Lake Center
11:01PM 44.5542 -108.9656 229° Southwest 142 163 6,000 -1,020 Descending Salt Lake Center